Time;durP1;ratioP1;P1;durP2;ratioP2;P2;SDS_P1;SDS_P2;PMS_P1;PMS_P2;Temp;Humidity;BMP_temperature;BMP_pressure;BME280_temperature;BME280_humidity;BME280_pressure;Samples;Min_cycle;Max_cycle;Signal;HPM_P1;HPM_P2
2022/02/03 00:00:20;;;;;;;0.50;0.50;;;;;;;4.05;63.28;101457.63;687147;28;135919;-65
2022/02/03 00:00:44;;;;;;;0.60;0.60;;;;;;;4.04;63.12;101458.59;686432;28;90221;-65
2022/02/03 00:01:11;;;;;;;0.52;0.52;;;;;;;4.01;63.38;101454.31;686090;28;115087;-65
2022/02/03 00:01:49;;;;;;;0.50;0.50;;;;;;;4.01;63.44;101466.84;683128;28;180762;-65
2022/02/03 00:02:23;;;;;;;0.40;0.40;;;;;;;4.00;63.35;101462.47;685910;28;138550;-65
2022/02/03 00:02:54;;;;;;;0.60;0.60;;;;;;;3.95;63.29;101469.03;687457;28;137946;-65
2022/02/03 00:03:20;;;;;;;0.60;0.60;;;;;;;3.94;63.36;101458.44;686890;28;138697;-65
2022/02/03 00:03:50;;;;;;;0.50;0.50;;;;;;;3.94;63.51;101464.63;687217;28;138000;-66
2022/02/03 00:04:15;;;;;;;0.50;0.50;;;;;;;3.92;63.69;101465.75;687378;28;137785;-66
2022/02/03 00:04:46;;;;;;;0.40;0.40;;;;;;;3.90;63.58;101464.97;686458;28;139018;-65
2022/02/03 00:05:13;;;;;;;0.60;0.60;;;;;;;3.88;63.55;101467.78;686346;28;160472;-65
2022/02/03 00:05:44;;;;;;;0.60;0.60;;;;;;;3.87;63.66;101468.75;686829;28;138870;-66
2022/02/03 00:06:10;;;;;;;0.60;0.60;;;;;;;3.87;63.91;101471.44;686508;28;137693;-65
2022/02/03 00:06:46;;;;;;;0.50;0.50;;;;;;;3.88;63.78;101469.59;685863;28;136508;-65
2022/02/03 00:07:13;;;;;;;0.43;0.43;;;;;;;3.87;63.74;101467.88;687627;28;137668;-65
2022/02/03 00:07:44;;;;;;;0.60;0.60;;;;;;;3.90;63.59;101470.31;685897;28;161156;-66
2022/02/03 00:08:12;;;;;;;0.60;0.60;;;;;;;3.89;63.76;101468.63;687034;28;137458;-66
2022/02/03 00:08:49;;;;;;;0.60;0.60;;;;;;;3.91;63.52;101475.56;687599;28;138118;-65
2022/02/03 00:09:30;;;;;;;0.50;0.50;;;;;;;3.89;63.52;101472.16;687279;28;138496;-65
2022/02/03 00:10:23;;;;;;;0.50;0.50;;;;;;;3.93;63.77;101475.44;686800;28;138127;-66
2022/02/03 00:11:03;;;;;;;0.50;0.50;;;;;;;3.95;63.64;101468.19;687241;28;135696;-65
2022/02/03 00:11:41;;;;;;;0.40;0.40;;;;;;;3.97;63.71;101472.41;686022;28;137627;-66
2022/02/03 00:17:04;;;;;;;0.70;0.70;;;;;;;3.86;63.50;101483.06;668372;29;135999;-65
2022/02/03 00:22:14;;;;;;;0.60;0.60;;;;;;;3.72;64.24;101476.09;686899;28;137501;-66
2022/02/03 00:22:51;;;;;;;0.60;0.60;;;;;;;3.70;64.26;101479.81;686881;28;138629;-66
2022/02/03 00:23:42;;;;;;;0.50;0.50;;;;;;;3.74;64.12;101484.00;686725;28;135889;-66
2022/02/03 00:24:11;;;;;;;0.60;0.60;;;;;;;3.74;64.19;101489.34;686997;28;136272;-65
2022/02/03 00:24:48;;;;;;;0.60;0.60;;;;;;;3.75;64.27;101486.53;687075;28;137398;-66
2022/02/03 00:25:13;;;;;;;0.55;0.55;;;;;;;3.75;64.18;101489.22;686203;28;137329;-66
2022/02/03 00:25:40;;;;;;;0.50;0.50;;;;;;;3.76;64.21;101498.06;688152;28;115626;-65
2022/02/03 00:26:02;;;;;;;0.40;0.40;;;;;;;3.76;64.14;101492.72;687128;28;137947;-65
2022/02/03 00:26:28;;;;;;;0.60;0.60;;;;;;;3.76;64.21;101495.41;688676;28;67522;-65
2022/02/03 00:26:59;;;;;;;0.60;0.60;;;;;;;3.78;64.37;101490.81;686275;28;138018;-65
2022/02/03 00:27:37;;;;;;;0.57;0.57;;;;;;;3.81;64.31;101493.25;686961;28;138741;-65
2022/02/03 00:28:09;;;;;;;0.50;0.50;;;;;;;3.79;64.27;101489.84;687180;28;138281;-65
2022/02/03 00:28:35;;;;;;;0.40;0.40;;;;;;;3.81;64.00;101498.63;686683;28;137517;-65
2022/02/03 00:28:56;;;;;;;0.60;0.60;;;;;;;3.78;63.98;101490.81;688397;28;113633;-65
2022/02/03 00:29:37;;;;;;;0.60;0.60;;;;;;;3.77;63.88;101497.13;691253;28;23541;-65
2022/02/03 00:30:03;;;;;;;0.50;0.50;;;;;;;3.75;64.21;101502.56;687281;28;137662;-65
2022/02/03 00:30:33;;;;;;;0.50;0.50;;;;;;;3.75;64.32;101496.41;687025;28;137486;-65
2022/02/03 00:31:02;;;;;;;0.40;0.40;;;;;;;3.74;64.23;101492.84;687272;28;137713;-65
2022/02/03 00:31:38;;;;;;;0.60;0.60;;;;;;;3.73;64.35;101498.31;684987;28;160628;-65
2022/02/03 00:32:06;;;;;;;0.60;0.60;;;;;;;3.73;64.38;101498.31;685745;28;160586;-65
2022/02/03 00:33:19;;;;;;;0.50;0.50;;;;;;;3.67;64.42;101501.44;677029;28;135780;-66
2022/02/03 00:33:50;;;;;;;0.52;0.52;;;;;;;3.66;64.41;101502.41;686840;28;136030;-66
2022/02/03 00:34:16;;;;;;;0.60;0.60;;;;;;;3.67;64.35;101501.44;686466;28;136165;-66
2022/02/03 00:34:49;;;;;;;0.60;0.60;;;;;;;3.65;64.36;101500.69;686390;28;136583;-66
2022/02/03 00:35:35;;;;;;;0.50;0.50;;;;;;;3.64;64.41;101504.31;687244;28;138668;-66
2022/02/03 00:36:07;;;;;;;0.57;0.57;;;;;;;3.63;64.70;101500.81;686571;28;137663;-66
2022/02/03 00:36:41;;;;;;;0.70;0.70;;;;;;;3.63;64.50;101505.31;686360;28;137328;-66
2022/02/03 00:37:09;;;;;;;0.60;0.60;;;;;;;3.64;64.77;101510.53;686500;28;137539;-66
2022/02/03 00:37:44;;;;;;;0.50;0.50;;;;;;;3.63;64.69;101506.16;687090;28;138381;-66
2022/02/03 00:38:22;;;;;;;0.50;0.50;;;;;;;3.63;64.70;101511.50;686763;28;138274;-66
2022/02/03 00:48:21;;;;;;;0.50;0.50;;;;;;;3.52;64.97;101514.94;682203;28;137699;-66
2022/02/03 00:48:45;;;;;;;0.60;0.60;;;;;;;3.49;64.92;101509.84;682647;28;136025;-66
2022/02/03 00:49:10;;;;;;;0.60;0.60;;;;;;;3.50;64.96;101511.53;683568;28;93457;-66
2022/02/03 00:49:39;;;;;;;0.60;0.60;;;;;;;3.46;65.06;101509.22;683560;28;115039;-65
2022/02/03 00:50:07;;;;;;;0.50;0.50;;;;;;;3.49;64.86;101509.00;682712;28;137714;-65
2022/02/03 00:50:32;;;;;;;0.60;0.60;;;;;;;3.49;65.17;101509.84;682234;28;137740;-65
2022/02/03 00:50:54;;;;;;;0.70;0.70;;;;;;;3.50;65.11;101503.53;684207;28;92111;-65
2022/02/03 00:51:17;;;;;;;0.60;0.60;;;;;;;3.50;65.03;101508.88;684840;28;46289;-65
2022/02/03 00:51:44;;;;;;;0.60;0.60;;;;;;;3.51;65.12;101505.25;689058;28;67543;-65
2022/02/03 00:52:05;;;;;;;0.50;0.50;;;;;;;3.55;65.12;101511.22;686703;28;136404;-65
2022/02/03 00:52:27;;;;;;;0.50;0.50;;;;;;;3.54;65.10;101509.50;690637;28;23388;-65
2022/02/03 00:52:49;;;;;;;0.52;0.52;;;;;;;3.55;65.02;101500.53;689167;28;70696;-66
2022/02/03 00:53:13;;;;;;;0.70;0.70;;;;;;;3.54;64.85;101505.03;690906;28;22400;-66
2022/02/03 00:53:35;;;;;;;0.60;0.60;;;;;;;3.52;65.00;101504.28;688013;28;115277;-66
2022/02/03 00:53:58;;;;;;;0.60;0.60;;;;;;;3.52;64.99;101506.94;689386;28;46537;-66
2022/02/03 00:54:23;;;;;;;0.50;0.50;;;;;;;3.51;64.92;101502.59;690507;28;45727;-66
2022/02/03 00:54:44;;;;;;;0.50;0.50;;;;;;;3.51;65.13;101497.25;687740;28;115885;-66
2022/02/03 00:55:06;;;;;;;0.40;0.40;;;;;;;3.52;65.17;101506.94;690988;28;21552;-66
2022/02/03 00:55:29;;;;;;;0.60;0.60;;;;;;;3.52;65.02;101504.28;689721;28;42487;-66
2022/02/03 00:55:53;;;;;;;0.60;0.60;;;;;;;3.52;65.16;101509.59;688430;28;90483;-66
2022/02/03 00:56:17;;;;;;;0.55;0.55;;;;;;;3.53;64.97;101503.31;688147;28;67533;-66
2022/02/03 00:56:41;;;;;;;0.50;0.50;;;;;;;3.54;64.91;101513.03;688663;28;90253;-66
2022/02/03 00:57:04;;;;;;;0.50;0.50;;;;;;;3.54;65.18;101512.16;688204;28;92350;-66
2022/02/03 00:57:29;;;;;;;0.50;0.50;;;;;;;3.52;65.00;101503.44;689219;28;67510;-66
2022/02/03 00:57:52;;;;;;;0.60;0.60;;;;;;;3.53;64.94;101508.66;685975;28;136370;-66
2022/02/03 00:58:17;;;;;;;0.60;0.60;;;;;;;3.55;65.11;101511.22;689569;28;67458;-65
2022/02/03 00:58:40;;;;;;;0.50;0.50;;;;;;;3.55;65.02;101509.38;688194;28;90397;-65
2022/02/03 00:59:05;;;;;;;0.50;0.50;;;;;;;3.55;64.95;101512.06;689187;28;69322;-65
2022/02/03 00:59:35;;;;;;;0.50;0.50;;;;;;;3.55;64.72;101514.72;687455;28;113411;-66
2022/02/03 01:00:03;;;;;;;0.45;0.45;;;;;;;3.53;64.93;101505.97;686503;28;137765;-66
2022/02/03 01:00:29;;;;;;;0.60;0.60;;;;;;;3.52;64.87;101509.59;688617;28;83596;-66
2022/02/03 01:00:52;;;;;;;0.60;0.60;;;;;;;3.51;64.82;101509.72;689368;28;69414;-66
2022/02/03 01:01:19;;;;;;;0.60;0.60;;;;;;;3.49;64.89;101507.16;688498;28;69253;-66
2022/02/03 01:01:45;;;;;;;0.50;0.50;;;;;;;3.49;64.92;101509.84;686760;28;138113;-66
2022/02/03 01:02:11;;;;;;;0.50;0.50;;;;;;;3.49;64.88;101509.84;686845;28;137590;-65
2022/02/03 01:02:37;;;;;;;0.47;0.47;;;;;;;3.46;65.01;101510.06;687016;28;138634;-65
2022/02/03 01:03:04;;;;;;;0.60;0.60;;;;;;;3.47;65.06;101516.28;687169;28;138065;-65
2022/02/03 01:03:27;;;;;;;0.60;0.60;;;;;;;3.46;65.20;101517.22;687131;28;136432;-65
2022/02/03 01:03:50;;;;;;;0.60;0.60;;;;;;;3.47;65.03;101521.63;688641;28;69459;-65
2022/02/03 01:04:14;;;;;;;0.50;0.50;;;;;;;3.47;65.05;101511.78;688992;28;69159;-66
2022/02/03 01:04:37;;;;;;;0.50;0.50;;;;;;;3.46;65.20;101511.88;689018;28;91506;-66
2022/02/03 01:05:03;;;;;;;0.40;0.40;;;;;;;3.45;65.21;101515.50;689249;28;70276;-66
2022/02/03 01:05:24;;;;;;;0.57;0.57;;;;;;;3.43;65.29;101499.59;685778;28;138067;-66
2022/02/03 01:05:48;;;;;;;0.60;0.60;;;;;;;3.46;65.25;101510.06;690200;28;23411;-66
2022/02/03 01:06:12;;;;;;;0.60;0.60;;;;;;;3.47;65.06;101506.44;687884;28;91745;-66
2022/02/03 01:06:35;;;;;;;0.50;0.50;;;;;;;3.46;65.06;101509.22;687521;28;112016;-66
2022/02/03 01:06:58;;;;;;;0.60;0.60;;;;;;;3.45;65.13;101504.81;688180;28;91344;-66
2022/02/03 01:07:21;;;;;;;0.50;0.50;;;;;;;3.44;65.17;101517.34;688546;28;69335;-66
2022/02/03 01:07:44;;;;;;;0.50;0.50;;;;;;;3.44;65.14;101509.31;688862;28;67500;-66
2022/02/03 01:08:15;;;;;;;0.63;0.63;;;;;;;3.44;65.14;101509.31;687663;28;92770;-66
2022/02/03 01:08:43;;;;;;;0.60;0.60;;;;;;;3.42;65.09;101512.09;686974;28;136217;-65
2022/02/03 01:09:06;;;;;;;0.60;0.60;;;;;;;3.41;65.09;101520.22;686675;28;138293;-65
2022/02/03 01:09:31;;;;;;;0.60;0.60;;;;;;;3.38;65.15;101507.94;689342;28;69469;-65
2022/02/03 01:10:03;;;;;;;0.50;0.50;;;;;;;3.39;65.21;101522.16;686895;28;113529;-65
2022/02/03 01:10:30;;;;;;;0.60;0.60;;;;;;;3.33;65.07;101506.59;687393;28;137969;-65
2022/02/03 01:10:55;;;;;;;0.60;0.60;;;;;;;3.37;65.29;101524.94;686876;28;137680;-65
2022/02/03 01:11:21;;;;;;;0.60;0.60;;;;;;;3.38;65.37;101525.78;664467;28;115486;-65
2022/02/03 01:11:47;;;;;;;0.50;0.50;;;;;;;3.39;65.22;101522.16;688195;28;139106;-65
2022/02/03 01:12:17;;;;;;;0.50;0.50;;;;;;;3.39;65.39;101527.50;688248;28;138038;-65
2022/02/03 01:12:48;;;;;;;0.50;0.50;;;;;;;3.36;65.28;101525.91;687032;28;138719;-65
2022/02/03 01:13:17;;;;;;;0.70;0.70;;;;;;;3.35;65.34;101526.84;687748;28;160910;-65
2022/02/03 01:13:44;;;;;;;0.60;0.60;;;;;;;3.36;65.43;101519.72;687264;28;135729;-65
2022/02/03 01:14:11;;;;;;;0.50;0.50;;;;;;;3.35;65.31;101524.19;686968;28;138114;-65
2022/02/03 01:14:42;;;;;;;0.50;0.50;;;;;;;3.34;65.38;101530.50;685772;28;136448;-65
2022/02/03 01:15:16;;;;;;;0.50;0.50;;;;;;;3.34;65.47;101518.94;686891;28;137859;-65
2022/02/03 01:15:44;;;;;;;0.70;0.70;;;;;;;3.32;65.50;101513.72;686359;28;137798;-65
2022/02/03 01:16:20;;;;;;;0.60;0.60;;;;;;;3.33;65.57;101519.94;686146;28;137689;-65
2022/02/03 01:17:01;;;;;;;0.60;0.60;;;;;;;3.33;65.61;101517.28;686137;28;156883;-65
2022/02/03 01:17:33;;;;;;;0.50;0.50;;;;;;;3.35;65.49;101523.34;686710;28;138534;-65
2022/02/03 01:18:08;;;;;;;0.63;0.63;;;;;;;3.34;65.45;101524.28;686254;28;135907;-65
2022/02/03 01:19:03;;;;;;;0.60;0.60;;;;;;;3.36;65.58;101522.38;687354;28;136953;-65
2022/02/03 01:20:47;;;;;;;0.50;0.50;;;;;;;3.35;65.53;101520.66;684839;28;137583;-65
2022/02/03 01:21:31;;;;;;;0.60;0.60;;;;;;;3.33;65.50;101528.78;685209;28;160734;-65
2022/02/03 01:34:24;;;;;;;0.50;0.50;;;;;;;3.28;66.06;101530.94;679655;28;138442;-66
2022/02/03 01:34:56;;;;;;;0.50;0.50;;;;;;;3.29;66.01;101530.00;680394;28;136006;-66
2022/02/03 01:37:10;;;;;;;0.50;0.50;;;;;;;3.27;66.02;101528.38;685578;28;157306;-65
2022/02/03 01:43:11;;;;;;;0.57;0.57;;;;;;;3.28;66.07;101530.94;683612;28;129137;-65
2022/02/03 01:43:34;;;;;;;0.55;0.55;;;;;;;3.34;65.85;101527.84;678615;28;138314;-66
2022/02/03 01:44:01;;;;;;;0.50;0.50;;;;;;;3.35;65.85;101536.69;686716;28;138105;-66
2022/02/03 01:44:27;;;;;;;0.50;0.50;;;;;;;3.35;65.71;101531.34;686556;28;161502;-65
2022/02/03 01:44:54;;;;;;;0.60;0.60;;;;;;;3.35;65.65;101534.03;686156;28;161099;-65
2022/02/03 01:45:20;;;;;;;0.60;0.60;;;;;;;3.34;65.87;101524.28;687218;28;138684;-65
2022/02/03 01:45:51;;;;;;;0.60;0.60;;;;;;;3.31;65.70;101520.06;686999;28;136362;-65
2022/02/03 01:46:16;;;;;;;0.50;0.50;;;;;;;3.25;65.57;101518.66;685502;28;137396;-65
2022/02/03 01:46:50;;;;;;;0.50;0.50;;;;;;;3.27;65.60;101526.56;686547;28;136476;-65
2022/02/03 01:47:25;;;;;;;0.60;0.60;;;;;;;3.24;65.73;101516.09;686956;28;138373;-65
2022/02/03 01:47:56;;;;;;;0.60;0.60;;;;;;;3.22;65.74;101521.56;686827;28;136092;-65
2022/02/03 01:48:33;;;;;;;0.50;0.50;;;;;;;3.22;65.82;101523.38;686598;28;136444;-65
2022/02/03 01:49:09;;;;;;;0.50;0.50;;;;;;;3.20;65.99;101519.97;686501;28;138410;-65
2022/02/03 01:51:54;;;;;;;0.50;0.50;;;;;;;3.19;66.12;101520.94;684692;28;157205;-65
2022/02/03 01:52:30;;;;;;;0.60;0.60;;;;;;;3.16;66.17;101523.81;686635;28;138130;-65
2022/02/03 01:52:52;;;;;;;0.70;0.70;;;;;;;3.15;66.07;101520.31;686814;28;137852;-65
2022/02/03 01:53:19;;;;;;;0.60;0.60;;;;;;;3.15;66.31;101519.44;689570;28;46616;-66
2022/02/03 01:53:42;;;;;;;0.50;0.50;;;;;;;3.13;66.32;101522.19;686777;28;136445;-66
2022/02/03 01:54:04;;;;;;;0.50;0.50;;;;;;;3.14;66.21;101520.41;690252;28;46372;-65
2022/02/03 01:54:27;;;;;;;0.43;0.43;;;;;;;3.13;66.35;101518.69;687490;28;69325;-65
2022/02/03 01:54:52;;;;;;;0.60;0.60;;;;;;;3.14;66.34;101518.59;688982;28;69459;-65
2022/02/03 01:55:16;;;;;;;0.70;0.70;;;;;;;3.13;66.44;101514.19;687544;28;113543;-65
2022/02/03 01:55:39;;;;;;;0.60;0.60;;;;;;;3.14;66.36;101517.75;688201;28;92314;-65
2022/02/03 01:56:03;;;;;;;0.60;0.60;;;;;;;3.13;66.29;101516.88;684514;28;69494;-65
2022/02/03 01:56:31;;;;;;;0.52;0.52;;;;;;;3.15;66.45;101511.41;684433;28;67506;-65
2022/02/03 01:57:10;;;;;;;0.50;0.50;;;;;;;3.15;66.38;101514.09;683102;28;137874;-65
2022/02/03 01:57:35;;;;;;;0.70;0.70;;;;;;;3.15;66.30;101516.75;683045;28;137534;-65
2022/02/03 01:58:03;;;;;;;0.60;0.60;;;;;;;3.14;66.32;101507.91;685850;28;115750;-65
2022/02/03 01:58:31;;;;;;;0.50;0.50;;;;;;;3.18;66.39;101509.41;686159;28;137783;-65
2022/02/03 01:58:55;;;;;;;0.50;0.50;;;;;;;3.17;66.40;101507.69;688899;28;70277;-65
2022/02/03 01:59:20;;;;;;;0.50;0.50;;;;;;;3.18;66.27;101504.06;687905;28;90982;-65
2022/02/03 01:59:46;;;;;;;0.60;0.60;;;;;;;3.13;66.42;101498.19;687061;28;138678;-65
2022/02/03 02:00:10;;;;;;;0.70;0.70;;;;;;;3.16;66.33;101505.97;686699;28;138653;-65
2022/02/03 02:00:36;;;;;;;0.60;0.60;;;;;;;3.17;66.22;101510.34;686294;28;160487;-65
2022/02/03 02:01:00;;;;;;;0.60;0.60;;;;;;;3.17;66.17;101512.19;688222;28;92440;-65
2022/02/03 02:01:24;;;;;;;0.60;0.60;;;;;;;3.16;66.21;101508.63;687678;28;92305;-65
2022/02/03 02:01:48;;;;;;;0.50;0.50;;;;;;;3.17;66.36;101510.34;687565;28;92509;-65
2022/02/03 02:02:10;;;;;;;0.50;0.50;;;;;;;3.17;66.40;101501.50;688486;28;92249;-65
2022/02/03 02:02:32;;;;;;;0.70;0.70;;;;;;;3.18;66.32;101504.06;689832;28;44424;-65
2022/02/03 02:03:07;;;;;;;0.63;0.63;;;;;;;3.18;66.30;101504.06;690165;28;46347;-65
2022/02/03 02:03:37;;;;;;;0.60;0.60;;;;;;;3.18;66.37;101501.41;687098;28;137717;-66
2022/02/03 02:04:05;;;;;;;0.50;0.50;;;;;;;3.20;66.29;101504.81;686659;28;138359;-66
2022/02/03 02:04:46;;;;;;;0.50;0.50;;;;;;;3.19;66.19;101497.75;686032;28;161049;-65
2022/02/03 02:05:11;;;;;;;0.70;0.70;;;;;;;3.21;66.32;101501.19;685501;28;160610;-65
2022/02/03 02:05:40;;;;;;;0.60;0.60;;;;;;;3.20;66.04;101498.63;686454;28;138363;-65
2022/02/03 02:06:11;;;;;;;0.60;0.60;;;;;;;3.21;66.17;101500.31;686279;28;136401;-65
2022/02/03 02:06:36;;;;;;;0.50;0.50;;;;;;;3.20;66.26;101496.78;662219;28;157434;-66
2022/02/03 02:07:18;;;;;;;0.50;0.50;;;;;;;3.20;66.21;101502.13;689359;28;115304;-65
2022/02/03 02:07:57;;;;;;;0.70;0.70;;;;;;;3.19;66.36;101500.41;688744;28;137643;-65
2022/02/03 02:08:27;;;;;;;0.60;0.60;;;;;;;3.19;66.29;101508.41;689259;28;137061;-65
2022/02/03 02:08:57;;;;;;;0.55;0.55;;;;;;;3.20;66.15;101506.63;686739;28;136657;-65
2022/02/03 02:09:29;;;;;;;0.40;0.40;;;;;;;3.19;66.31;101500.41;687023;28;137977;-65
2022/02/03 02:10:07;;;;;;;0.57;0.57;;;;;;;3.18;66.46;101504.06;686536;28;138941;-65
2022/02/03 02:10:59;;;;;;;0.60;0.60;;;;;;;3.18;66.32;101495.19;686302;28;137402;-65
2022/02/03 02:11:44;;;;;;;0.50;0.50;;;;;;;3.19;66.39;101502.25;686002;28;137378;-66
2022/02/03 02:12:20;;;;;;;0.50;0.50;;;;;;;3.18;66.57;101497.84;686380;28;138030;-65
2022/02/03 02:12:56;;;;;;;0.70;0.70;;;;;;;3.18;66.45;101496.06;686935;28;138005;-65
2022/02/03 02:13:43;;;;;;;0.60;0.60;;;;;;;3.16;66.39;101497.13;685611;28;158900;-65
2022/02/03 02:14:30;;;;;;;0.50;0.50;;;;;;;3.18;66.46;101493.38;686324;28;138202;-65
2022/02/03 02:15:28;;;;;;;0.70;0.70;;;;;;;3.16;66.62;101497.13;687060;28;137809;-65
2022/02/03 02:16:07;;;;;;;0.60;0.60;;;;;;;3.16;66.49;101497.13;686762;28;137628;-65
2022/02/03 02:16:52;;;;;;;0.50;0.50;;;;;;;3.18;66.72;101495.19;686232;28;137705;-65
2022/02/03 02:18:20;;;;;;;0.60;0.60;;;;;;;3.17;66.75;101497.00;686598;28;137712;-65
2022/02/03 02:18:58;;;;;;;0.60;0.60;;;;;;;3.18;66.73;101501.41;686578;28;137970;-66
2022/02/03 02:19:28;;;;;;;0.50;0.50;;;;;;;3.19;66.77;101499.56;686947;28;135983;-65
2022/02/03 02:20:05;;;;;;;0.60;0.60;;;;;;;3.19;66.82;101499.56;685980;28;161539;-65
2022/02/03 02:37:15;;;;;;;0.50;0.50;;;;;;;3.17;67.24;101485.50;685670;28;157313;-66
2022/02/03 02:37:55;;;;;;;0.63;0.63;;;;;;;3.20;67.33;101491.44;687143;28;137520;-66
2022/02/03 02:38:41;;;;;;;0.60;0.60;;;;;;;3.21;67.32;101495.84;686751;28;158906;-66
2022/02/03 02:39:11;;;;;;;0.50;0.50;;;;;;;3.16;67.40;101481.09;682137;28;135878;-66
2022/02/03 02:39:50;;;;;;;0.55;0.55;;;;;;;3.23;67.36;101496.56;682907;28;137919;-66
2022/02/03 02:40:48;;;;;;;0.70;0.70;;;;;;;3.24;67.27;101486.72;683060;28;138558;-67
2022/02/03 02:42:04;;;;;;;0.55;0.55;;;;;;;3.23;67.27;101477.88;687523;28;121826;-67
2022/02/03 02:42:32;;;;;;;0.70;0.70;;;;;;;3.27;67.32;101475.00;685707;28;158452;-67
2022/02/03 02:42:59;;;;;;;0.60;0.60;;;;;;;3.30;67.27;101474.78;687388;28;138682;-66
2022/02/03 02:43:25;;;;;;;0.50;0.50;;;;;;;3.33;67.27;101469.22;687163;28;137793;-66
2022/02/03 02:43:52;;;;;;;0.50;0.50;;;;;;;3.34;67.21;101473.56;687353;28;136306;-67
2022/02/03 02:44:18;;;;;;;0.50;0.50;;;;;;;3.32;67.17;101465.66;687404;28;139587;-67
2022/02/03 02:44:47;;;;;;;0.68;0.68;;;;;;;3.34;67.14;101474.44;687213;28;138184;-66
2022/02/03 02:45:10;;;;;;;0.60;0.60;;;;;;;3.35;67.12;101473.44;687328;28;139023;-64
2022/02/03 02:45:41;;;;;;;0.60;0.60;;;;;;;3.34;67.10;101463.75;690011;28;65750;-66
2022/02/03 02:46:09;;;;;;;0.60;0.60;;;;;;;3.34;67.09;101468.22;687243;28;136423;-66
2022/02/03 02:46:34;;;;;;;0.50;0.50;;;;;;;3.33;67.36;101472.72;686464;28;138015;-65
2022/02/03 02:46:56;;;;;;;0.50;0.50;;;;;;;3.29;67.30;101457.03;687626;28;138421;-66
2022/02/03 02:47:27;;;;;;;0.70;0.70;;;;;;;3.34;67.24;101468.22;691397;28;23480;-66
2022/02/03 02:47:53;;;;;;;0.60;0.60;;;;;;;3.32;67.21;101462.16;686615;28;138200;-66
2022/02/03 02:48:24;;;;;;;0.60;0.60;;;;;;;3.28;67.26;101450.84;687067;28;138780;-65
2022/02/03 02:49:08;;;;;;;0.50;0.50;;;;;;;3.32;67.41;101454.97;686235;28;159086;-66
2022/02/03 02:49:43;;;;;;;0.50;0.50;;;;;;;3.32;67.21;101452.31;687121;28;136422;-66
2022/02/03 02:50:08;;;;;;;0.70;0.70;;;;;;;3.34;67.36;101457.53;686957;28;137525;-65
2022/02/03 02:50:37;;;;;;;0.60;0.60;;;;;;;3.33;67.39;101458.53;688404;28;92254;-66
2022/02/03 02:51:09;;;;;;;0.60;0.60;;;;;;;3.32;67.29;101457.66;687384;28;136259;-66
2022/02/03 02:51:37;;;;;;;0.50;0.50;;;;;;;3.34;67.44;101453.06;686430;28;137577;-66
2022/02/03 02:52:07;;;;;;;0.50;0.50;;;;;;;3.36;67.38;101456.47;687362;28;136026;-66
2022/02/03 02:52:37;;;;;;;0.70;0.70;;;;;;;3.35;67.29;101456.59;687511;28;136200;-65
2022/02/03 02:53:12;;;;;;;0.60;0.60;;;;;;;3.36;67.22;101453.81;687650;28;136230;-66
2022/02/03 02:53:55;;;;;;;0.60;0.60;;;;;;;3.36;67.45;101455.63;686998;28;137880;-66
2022/02/03 02:54:33;;;;;;;0.40;0.40;;;;;;;3.38;67.44;101445.69;686700;28;158899;-65
2022/02/03 02:55:10;;;;;;;0.60;0.60;;;;;;;3.39;67.28;101455.41;686902;28;137827;-66
2022/02/03 02:55:47;;;;;;;0.60;0.60;;;;;;;3.39;67.38;101450.91;687187;28;137481;-66
2022/02/03 02:56:21;;;;;;;0.50;0.50;;;;;;;3.43;67.19;101454.19;686311;28;160547;-67
2022/02/03 02:57:01;;;;;;;0.40;0.40;;;;;;;3.40;67.13;101444.63;684638;28;158005;-67
2022/02/03 02:58:21;;;;;;;0.60;0.60;;;;;;;3.46;67.03;101453.97;676530;29;160611;-66
2022/02/03 02:59:38;;;;;;;0.43;0.43;;;;;;;3.47;66.65;101453.03;685914;28;137699;-66
2022/02/03 03:00:29;;;;;;;0.70;0.70;;;;;;;3.46;67.19;101453.97;686351;28;136000;-65
2022/02/03 03:02:52;;;;;;;0.70;0.70;;;;;;;3.48;66.89;101440.50;682698;28;137311;-65
2022/02/03 03:29:25;;;;;;;0.50;0.50;;;;;;;3.27;67.85;101429.59;674633;29;137664;-66
2022/02/03 03:30:02;;;;;;;0.65;0.65;;;;;;;3.28;67.83;101434.00;687253;28;135857;-66
2022/02/03 03:30:30;;;;;;;0.60;0.60;;;;;;;3.28;67.92;101432.16;687103;28;139982;-64
2022/02/03 03:31:05;;;;;;;0.50;0.50;;;;;;;3.27;67.94;101433.13;685941;28;159593;-66
2022/02/03 03:31:39;;;;;;;0.50;0.50;;;;;;;3.28;67.75;101425.97;686382;28;138177;-64
2022/02/03 03:33:09;;;;;;;0.60;0.60;;;;;;;3.31;68.06;101439.94;677671;29;138381;-66
2022/02/03 03:33:37;;;;;;;0.60;0.60;;;;;;;3.32;67.81;101430.94;676824;28;137859;-66
2022/02/03 03:34:08;;;;;;;0.50;0.50;;;;;;;3.32;67.86;101430.94;676458;29;161142;-66
2022/02/03 03:35:28;;;;;;;0.60;0.60;;;;;;;3.34;68.00;101428.16;677582;28;137683;-65
2022/02/03 03:35:52;;;;;;;0.60;0.60;;;;;;;3.35;67.90;101429.88;678931;28;88318;-67
2022/02/03 03:36:17;;;;;;;0.50;0.50;;;;;;;3.37;67.84;101441.28;678415;28;90590;-67
2022/02/03 03:36:41;;;;;;;0.40;0.40;;;;;;;3.37;67.80;101439.50;677787;29;113371;-66
2022/02/03 03:37:07;;;;;;;0.50;0.50;;;;;;;3.36;67.78;101429.78;678689;29;92197;-66
2022/02/03 03:37:33;;;;;;;0.60;0.60;;;;;;;3.37;67.79;101433.28;676965;29;137971;-66
2022/02/03 03:37:57;;;;;;;0.50;0.50;;;;;;;3.37;67.77;101435.94;676843;29;138467;-65
2022/02/03 03:38:20;;;;;;;0.50;0.50;;;;;;;3.38;67.70;101429.66;680743;28;115233;-65
2022/02/03 03:38:45;;;;;;;0.50;0.50;;;;;;;3.38;67.76;101435.84;680052;28;67481;-66
2022/02/03 03:39:06;;;;;;;0.50;0.50;;;;;;;3.39;67.75;101426.03;680868;28;116098;-66
2022/02/03 03:39:32;;;;;;;0.50;0.50;;;;;;;3.37;67.77;101428.81;690298;28;45260;-66
2022/02/03 03:39:58;;;;;;;0.60;0.60;;;;;;;3.38;67.83;101437.66;688042;28;115155;-65
2022/02/03 03:40:19;;;;;;;0.60;0.60;;;;;;;3.37;67.71;101428.81;682951;28;138277;-66
2022/02/03 03:40:43;;;;;;;0.50;0.50;;;;;;;3.35;67.87;101428.06;686747;28;23436;-66
2022/02/03 03:41:04;;;;;;;0.50;0.50;;;;;;;3.36;67.92;101435.13;681659;28;94845;-66
2022/02/03 03:41:30;;;;;;;5.95;5.68;;;;;;;3.35;67.81;101425.38;655705;28;44495;-66
2022/02/03 03:41:52;;;;;;;15.60;14.80;;;;;;;3.35;67.93;101433.41;676043;29;113135;-66
2022/02/03 03:42:14;;;;;;;0.60;0.60;;;;;;;3.34;67.96;101425.50;680275;28;45867;-67
2022/02/03 03:42:37;;;;;;;0.63;0.63;;;;;;;3.35;67.94;101428.06;681580;28;69861;-66
2022/02/03 03:43:04;;;;;;;0.50;0.50;;;;;;;3.36;67.92;101428.94;682864;28;69324;-66
2022/02/03 03:43:28;;;;;;;0.50;0.50;;;;;;;3.37;67.87;101420.81;682404;28;137960;-66
2022/02/03 03:43:59;;;;;;;0.50;0.50;;;;;;;3.39;67.79;101428.72;687573;28;92351;-66
2022/02/03 03:44:22;;;;;;;0.50;0.50;;;;;;;3.41;67.87;101424.09;687689;28;138090;-66
2022/02/03 03:44:45;;;;;;;0.60;0.60;;;;;;;3.41;67.83;101432.94;689455;28;69579;-66
2022/02/03 03:45:09;;;;;;;0.60;0.60;;;;;;;3.42;67.93;101420.47;690428;28;43748;-66
2022/02/03 03:45:31;;;;;;;0.60;0.60;;;;;;;3.41;67.75;101424.09;689137;28;93169;-66
2022/02/03 03:45:54;;;;;;;0.60;0.60;;;;;;;3.42;67.74;101429.31;690073;28;44405;-66
2022/02/03 03:46:19;;;;;;;0.50;0.50;;;;;;;3.42;67.68;101423.97;688605;28;68377;-66
2022/02/03 03:46:41;;;;;;;0.40;0.40;;;;;;;3.43;67.59;101422.16;687257;28;137863;-66
2022/02/03 03:47:04;;;;;;;0.50;0.50;;;;;;;3.40;67.61;101423.25;690774;28;46352;-66
2022/02/03 03:47:28;;;;;;;0.70;0.70;;;;;;;3.44;67.66;101429.22;688886;28;69306;-66
2022/02/03 03:47:54;;;;;;;0.60;0.60;;;;;;;3.42;67.73;101426.66;688367;28;93072;-66
2022/02/03 03:48:17;;;;;;;0.60;0.60;;;;;;;3.43;67.77;101430.16;686745;28;137899;-66
2022/02/03 03:48:41;;;;;;;0.60;0.60;;;;;;;3.40;67.65;101428.59;690497;28;46340;-66
2022/02/03 03:49:04;;;;;;;0.50;0.50;;;;;;;3.41;67.70;101424.94;687707;28;105526;-66
2022/02/03 03:49:32;;;;;;;0.40;0.40;;;;;;;3.41;67.61;101430.28;689349;28;70391;-66
2022/02/03 03:50:01;;;;;;;0.68;0.68;;;;;;;3.42;67.74;101431.16;687255;28;138059;-66
2022/02/03 03:50:25;;;;;;;0.60;0.60;;;;;;;3.42;67.87;101423.97;686826;28;139086;-66
2022/02/03 03:50:50;;;;;;;0.50;0.50;;;;;;;3.42;67.71;101420.47;687523;28;115263;-66
2022/02/03 03:51:13;;;;;;;0.50;0.50;;;;;;;3.42;67.63;101432.00;688356;28;92293;-66
2022/02/03 03:51:40;;;;;;;0.45;0.45;;;;;;;3.42;67.62;101433.81;687032;28;89223;-66